Time;durP1;ratioP1;P1;durP2;ratioP2;P2;SDS_P1;SDS_P2;PMS_P1;PMS_P2;Temp;Humidity;BMP_temperature;BMP_pressure;BME280_temperature;BME280_humidity;BME280_pressure;Samples;Min_cycle;Max_cycle;Signal;HPM_P1;HPM_P2
2021/06/18 00:01:27;;;;;;;8.67;7.97;;;;;;;26.60;46.82;100984.69;5060051;28;20543;-64
2021/06/18 00:03:53;;;;;;;9.93;8.97;;;;;;;26.74;46.62;100987.53;5058059;28;20449;-64
2021/06/18 00:06:18;;;;;;;9.90;8.50;;;;;;;26.76;46.46;100972.25;5048905;28;20301;-64
2021/06/18 00:08:44;;;;;;;10.30;8.70;;;;;;;26.24;47.80;100978.56;5040234;28;20276;-64
2021/06/18 00:11:09;;;;;;;10.40;9.40;;;;;;;26.33;47.90;100971.84;5039978;28;20184;-65
2021/06/18 00:13:35;;;;;;;10.13;9.00;;;;;;;25.24;51.10;100980.84;5040348;28;20271;-64
2021/06/18 00:16:00;;;;;;;10.43;8.83;;;;;;;25.47;50.44;100972.59;5040110;28;20198;-65
2021/06/18 00:18:25;;;;;;;9.60;8.80;;;;;;;26.41;47.45;100974.13;5039951;28;20539;-65
2021/06/18 00:20:51;;;;;;;9.43;8.53;;;;;;;26.71;46.16;100977.84;5040460;28;20171;-65
2021/06/18 00:23:16;;;;;;;9.00;8.20;;;;;;;26.38;47.83;100985.84;5039706;28;20552;-65
2021/06/18 00:25:43;;;;;;;9.63;8.63;;;;;;;26.48;47.11;100980.84;5040831;28;20308;-64
2021/06/18 00:28:08;;;;;;;9.87;8.87;;;;;;;26.68;46.85;100985.13;5040208;28;20171;-64
2021/06/18 00:30:34;;;;;;;9.20;8.50;;;;;;;26.72;46.59;100987.63;5040850;28;20695;-66
2021/06/18 00:32:59;;;;;;;9.90;9.00;;;;;;;26.69;46.82;100986.88;5039437;28;20192;-66
2021/06/18 00:35:24;;;;;;;9.40;8.40;;;;;;;26.91;45.72;100985.72;5039900;28;20194;-66
2021/06/18 00:37:50;;;;;;;8.63;7.83;;;;;;;26.79;46.38;100988.16;5047219;28;20236;-66
2021/06/18 00:40:15;;;;;;;9.87;8.83;;;;;;;26.49;47.35;100994.13;5059679;28;20182;-66
2021/06/18 00:42:41;;;;;;;8.60;7.80;;;;;;;26.84;46.13;100983.38;5059649;28;20170;-65
2021/06/18 00:45:07;;;;;;;9.57;8.67;;;;;;;26.23;48.11;100975.00;5059709;28;20223;-66
2021/06/18 00:47:33;;;;;;;9.70;9.00;;;;;;;26.45;47.47;100981.88;5056346;28;20482;-65
2021/06/18 00:49:58;;;;;;;9.93;9.03;;;;;;;26.48;47.38;100973.72;5039837;28;20424;-65
2021/06/18 00:52:23;;;;;;;13.80;9.13;;;;;;;26.65;46.83;100974.63;5039490;28;20218;-65
2021/06/18 00:54:50;;;;;;;9.40;8.57;;;;;;;26.46;47.62;100974.75;5038467;28;20281;-65
2021/06/18 00:57:17;;;;;;;11.30;9.30;;;;;;;26.26;48.18;100979.31;5038877;28;20197;-65
2021/06/18 00:59:42;;;;;;;9.23;8.40;;;;;;;26.59;47.28;100973.16;5039252;28;20794;-65
2021/06/18 01:02:08;;;;;;;9.33;8.63;;;;;;;26.61;47.40;100973.91;5038877;28;20471;-65
2021/06/18 01:04:33;;;;;;;9.60;8.80;;;;;;;26.76;46.54;100969.56;5039553;28;20261;-65
2021/06/18 01:07:09;;;;;;;9.40;8.33;;;;;;;26.60;47.29;100968.66;5039159;28;20504;-65
2021/06/18 01:10:14;;;;;;;9.37;8.47;;;;;;;26.74;46.68;100966.13;5039068;28;20236;-65
2021/06/18 01:12:46;;;;;;;9.50;8.70;;;;;;;26.56;47.56;100962.59;5038826;28;20413;-65
2021/06/18 01:15:18;;;;;;;10.63;9.53;;;;;;;26.61;47.25;100954.34;5038228;28;20920;-64
2021/06/18 01:18:02;;;;;;;10.43;9.40;;;;;;;26.66;47.04;100953.13;5039034;28;20495;-64
2021/06/18 01:20:48;;;;;;;9.80;8.90;;;;;;;26.65;47.52;100955.91;5038326;28;20417;-64
2021/06/18 01:23:39;;;;;;;10.37;9.47;;;;;;;26.43;47.85;100957.06;5038743;28;20413;-66
2021/06/18 01:26:23;;;;;;;10.50;9.50;;;;;;;26.56;47.73;100946.53;5035671;28;20511;-64
2021/06/18 01:28:54;;;;;;;9.97;9.07;;;;;;;26.49;47.63;100946.00;5038842;28;20500;-64
2021/06/18 01:31:22;;;;;;;10.10;9.20;;;;;;;26.41;48.02;100942.03;5037949;28;20421;-64
2021/06/18 01:34:02;;;;;;;10.93;10.03;;;;;;;26.55;47.58;100947.53;5041799;28;20435;-65
2021/06/18 01:36:29;;;;;;;10.07;9.17;;;;;;;26.43;47.83;100942.84;5038597;28;20404;-64
2021/06/18 01:38:55;;;;;;;9.47;8.60;;;;;;;26.59;47.31;100935.72;5037925;28;20431;-64
2021/06/18 01:41:23;;;;;;;10.90;9.67;;;;;;;26.39;48.06;100936.78;5038610;28;20425;-65
2021/06/18 01:43:50;;;;;;;12.00;9.50;;;;;;;26.06;49.38;100937.63;5038721;28;20421;-64
2021/06/18 01:46:18;;;;;;;9.87;8.90;;;;;;;26.14;48.76;100934.53;5038329;28;20417;-65
2021/06/18 01:48:49;;;;;;;10.37;9.40;;;;;;;26.03;49.29;100937.78;5037703;28;20412;-64
2021/06/18 01:51:16;;;;;;;9.90;9.00;;;;;;;26.03;49.14;100940.44;5053219;28;20435;-64
2021/06/18 01:53:43;;;;;;;10.40;9.40;;;;;;;26.28;48.31;100941.84;5037618;28;20424;-64
2021/06/18 01:56:13;;;;;;;9.87;8.73;;;;;;;26.44;47.92;100942.75;5038708;28;20413;-64
2021/06/18 01:58:39;;;;;;;10.43;9.37;;;;;;;26.31;48.39;100941.69;5050101;28;20463;-65
2021/06/18 02:01:04;;;;;;;10.20;9.40;;;;;;;26.54;47.48;100946.63;5057239;28;20694;-64
2021/06/18 02:03:30;;;;;;;10.03;9.00;;;;;;;26.04;49.09;100944.84;5057790;28;20408;-65
2021/06/18 02:05:58;;;;;;;10.70;9.70;;;;;;;26.19;48.49;100948.53;5041751;28;20186;-65
2021/06/18 02:08:23;;;;;;;10.70;9.70;;;;;;;26.02;48.99;100947.63;5037491;28;20194;-64
2021/06/18 02:10:51;;;;;;;11.20;10.00;;;;;;;26.14;48.23;100945.22;5037961;28;20417;-64
2021/06/18 02:13:17;;;;;;;10.07;9.30;;;;;;;26.32;48.08;100946.94;5038042;28;20178;-63
2021/06/18 02:15:45;;;;;;;9.83;8.90;;;;;;;25.58;49.84;100945.38;5037376;28;20479;-65
2021/06/18 02:18:12;;;;;;;10.83;9.83;;;;;;;25.47;50.42;100937.03;5037739;28;20441;-64
2021/06/18 02:20:38;;;;;;;11.23;10.27;;;;;;;25.54;50.49;100936.63;5037345;28;20692;-65
2021/06/18 02:23:05;;;;;;;10.90;10.00;;;;;;;25.32;51.20;100941.31;5038199;28;20429;-65
2021/06/18 02:25:32;;;;;;;11.23;10.10;;;;;;;25.14;51.80;100932.38;5037194;28;20461;-65
2021/06/18 02:27:58;;;;;;;12.30;11.10;;;;;;;24.74;53.28;100924.47;5037294;28;20707;-64
2021/06/18 02:30:24;;;;;;;14.83;13.43;;;;;;;24.71;53.49;100924.63;5037541;28;20417;-65
2021/06/18 02:32:51;;;;;;;13.73;12.53;;;;;;;24.40;54.61;100928.66;5038072;28;20481;-65
2021/06/18 02:35:16;;;;;;;14.03;12.20;;;;;;;24.60;53.50;100924.22;5037027;28;20262;-64
2021/06/18 02:37:41;;;;;;;13.83;12.53;;;;;;;24.51;53.87;100917.53;5038412;28;20683;-65
2021/06/18 02:40:07;;;;;;;13.10;11.90;;;;;;;25.27;51.31;100917.50;5037728;28;20536;-64
2021/06/18 02:42:33;;;;;;;12.83;11.63;;;;;;;24.76;53.44;100927.06;5037609;28;20174;-65
2021/06/18 02:44:58;;;;;;;14.40;13.20;;;;;;;24.79;53.36;100917.13;5037602;28;20796;-65
2021/06/18 02:47:47;;;;;;;15.53;13.00;;;;;;;24.62;54.03;100925.91;5037847;28;20193;-65
2021/06/18 02:50:36;;;;;;;14.33;13.03;;;;;;;23.98;56.23;100929.66;5039661;28;20228;-64
2021/06/18 02:53:26;;;;;;;16.53;14.93;;;;;;;23.85;56.91;100923.94;5039017;28;22302;-65
2021/06/18 02:55:54;;;;;;;13.60;12.37;;;;;;;24.76;53.54;100924.41;5057347;28;20582;-64
2021/06/18 02:58:45;;;;;;;15.63;14.30;;;;;;;24.77;53.57;100935.00;5056793;28;20420;-64
2021/06/18 03:01:12;;;;;;;16.57;15.03;;;;;;;25.60;51.08;100927.47;5046207;28;20763;-64
2021/06/18 03:03:44;;;;;;;17.47;15.77;;;;;;;24.82;53.64;100927.66;5054411;28;20448;-65
2021/06/18 03:06:11;;;;;;;18.13;15.07;;;;;;;23.67;57.85;100925.59;5037109;28;20503;-64
2021/06/18 03:08:39;;;;;;;19.50;17.70;;;;;;;23.43;58.88;100930.16;5037261;28;20428;-63
2021/06/18 03:11:05;;;;;;;18.80;17.03;;;;;;;24.25;56.33;100932.00;5036831;28;20688;-64
2021/06/18 03:13:34;;;;;;;16.27;14.77;;;;;;;23.94;56.84;100928.91;5052340;28;20432;-64
2021/06/18 03:16:00;;;;;;;18.90;16.90;;;;;;;24.72;54.66;100931.66;5036405;28;20292;-64
2021/06/18 03:18:26;;;;;;;20.23;18.23;;;;;;;24.63;55.05;100927.66;5037113;28;20745;-64
2021/06/18 03:20:57;;;;;;;18.57;16.90;;;;;;;24.73;54.86;100927.22;5039512;28;20248;-64
2021/06/18 03:23:23;;;;;;;18.03;16.43;;;;;;;25.31;52.63;100927.06;5043922;28;20434;-64
2021/06/18 03:25:48;;;;;;;19.37;17.67;;;;;;;24.89;54.38;100931.75;5053272;28;20740;-64
2021/06/18 03:28:14;;;;;;;19.97;18.20;;;;;;;24.71;54.74;100940.63;5046478;28;20445;-64
2021/06/18 03:30:40;;;;;;;17.30;15.60;;;;;;;25.04;53.84;100932.81;5040452;28;20174;-65
2021/06/18 03:33:06;;;;;;;18.67;17.17;;;;;;;24.67;54.84;100939.91;5052190;28;20189;-65
2021/06/18 03:35:32;;;;;;;20.27;18.27;;;;;;;24.86;54.40;100937.22;5045946;28;20217;-64
2021/06/18 03:37:58;;;;;;;20.10;18.30;;;;;;;24.79;54.58;100933.13;5065623;28;20907;-64
2021/06/18 03:40:23;;;;;;;18.47;16.87;;;;;;;25.55;51.87;100927.69;5076878;28;20228;-64
2021/06/18 03:42:50;;;;;;;17.57;15.97;;;;;;;25.51;52.14;100926.13;5047353;28;20424;-65
2021/06/18 03:45:16;;;;;;;18.40;16.90;;;;;;;26.19;50.19;100933.34;5039388;28;20443;-65
2021/06/18 03:47:42;;;;;;;15.70;14.07;;;;;;;26.34;49.67;100925.47;5039657;28;20413;-65
2021/06/18 03:50:08;;;;;;;17.37;15.70;;;;;;;26.00;50.65;100921.88;5040052;28;20834;-65
2021/06/18 03:52:34;;;;;;;16.50;15.00;;;;;;;25.58;51.69;100931.16;5048647;28;20177;-65
2021/06/18 03:55:00;;;;;;;16.73;15.07;;;;;;;25.64;51.74;100938.84;5058374;28;20466;-64
2021/06/18 03:57:26;;;;;;;12.60;11.20;;;;;;;27.27;47.06;100933.78;5048598;28;20762;-64
2021/06/18 03:59:52;;;;;;;13.27;11.93;;;;;;;27.08;47.52;100934.81;5041488;28;20195;-64
2021/06/18 04:02:17;;;;;;;16.40;14.70;;;;;;;27.14;47.65;100942.47;5042431;28;20189;-63
2021/06/18 04:04:43;;;;;;;12.37;11.27;;;;;;;27.64;46.64;100934.31;5059764;28;20847;-63
2021/06/18 04:07:10;;;;;;;15.40;14.00;;;;;;;27.17;47.50;100941.44;5049657;28;20204;-63
2021/06/18 04:09:37;;;;;;;13.83;12.63;;;;;;;26.89;48.13;100937.66;5041434;28;20853;-64
2021/06/18 04:12:02;;;;;;;15.00;13.70;;;;;;;26.50;49.03;100944.22;5043407;28;20885;-63
2021/06/18 04:14:28;;;;;;;14.33;12.93;;;;;;;27.66;45.94;100938.63;5041113;28;20559;-64
2021/06/18 04:16:53;;;;;;;14.13;12.83;;;;;;;27.39;46.95;100939.28;5040443;28;20421;-64
2021/06/18 04:19:19;;;;;;;13.70;12.50;;;;;;;28.48;44.04;100943.56;5040199;28;20174;-64
2021/06/18 04:21:45;;;;;;;12.57;11.57;;;;;;;26.78;47.69;100940.06;5039851;28;20181;-64
2021/06/18 04:24:14;;;;;;;15.07;12.93;;;;;;;27.28;46.90;100941.72;5040270;28;20190;-65
2021/06/18 04:26:40;;;;;;;12.47;11.43;;;;;;;27.59;45.99;100937.28;5046392;28;20762;-65
2021/06/18 04:29:06;;;;;;;13.90;12.70;;;;;;;28.09;44.95;100937.91;5055408;28;20441;-64
2021/06/18 04:31:31;;;;;;;13.67;12.50;;;;;;;29.12;42.31;100935.94;5040678;28;20439;-63
2021/06/18 04:33:57;;;;;;;13.97;12.60;;;;;;;29.49;41.65;100930.81;5041643;28;20240;-64
2021/06/18 04:36:22;;;;;;;12.40;11.37;;;;;;;28.20;44.58;100926.53;5039947;28;20182;-65
2021/06/18 04:38:47;;;;;;;15.63;10.87;;;;;;;27.95;44.74;100927.97;5046150;28;20227;-64
2021/06/18 04:41:13;;;;;;;11.97;10.80;;;;;;;28.84;43.13;100932.34;5059669;28;20173;-64
2021/06/18 04:43:38;;;;;;;11.53;10.53;;;;;;;28.74;43.44;100923.19;5059762;28;20207;-64
2021/06/18 04:46:03;;;;;;;11.90;9.93;;;;;;;28.89;42.66;100924.00;5059598;28;20180;-65
2021/06/18 04:48:29;;;;;;;10.20;9.13;;;;;;;28.42;43.87;100930.56;5055083;28;20175;-64
2021/06/18 04:50:55;;;;;;;11.50;10.40;;;;;;;29.09;42.36;100924.53;5040175;28;20166;-63
2021/06/18 04:53:20;;;;;;;10.60;9.70;;;;;;;28.67;42.94;100921.84;5039658;28;20469;-64
2021/06/18 04:55:46;;;;;;;9.93;9.13;;;;;;;28.81;42.93;100921.81;5039293;28;20210;-65
2021/06/18 04:58:12;;;;;;;10.53;8.47;;;;;;;29.75;40.72;100928.19;5039530;28;20173;-64
2021/06/18 05:00:37;;;;;;;10.53;9.33;;;;;;;29.90;40.71;100927.19;5049402;28;20626;-63
2021/06/18 05:03:03;;;;;;;11.10;9.90;;;;;;;29.93;40.78;100925.22;5059155;28;20450;-64
2021/06/18 05:05:29;;;;;;;10.17;9.23;;;;;;;30.91;38.88;100920.94;5059476;28;20244;-64
2021/06/18 05:07:55;;;;;;;10.37;9.57;;;;;;;31.15;38.09;100925.53;5054109;28;20182;-63
2021/06/18 05:10:21;;;;;;;11.10;10.00;;;;;;;30.69;38.79;100918.97;5039865;28;20186;-64
2021/06/18 05:12:47;;;;;;;9.20;8.30;;;;;;;31.34;37.36;100916.06;5039607;28;20439;-65
2021/06/18 05:15:13;;;;;;;10.13;9.23;;;;;;;30.67;39.21;100923.59;5022431;28;20719;-64
2021/06/18 05:17:38;;;;;;;9.47;8.50;;;;;;;29.87;40.15;100931.91;5043125;28;20459;-63
2021/06/18 05:20:04;;;;;;;9.93;9.07;;;;;;;31.06;38.09;100921.66;5058070;28;20178;-65
2021/06/18 05:22:30;;;;;;;10.33;9.40;;;;;;;31.33;37.41;100919.72;5058419;28;20169;-64
2021/06/18 05:24:55;;;;;;;10.03;9.03;;;;;;;30.51;38.79;100931.03;5057089;28;20233;-63
2021/06/18 05:27:21;;;;;;;8.83;8.13;;;;;;;30.57;39.19;100931.47;5047448;28;20590;-64
2021/06/18 05:29:46;;;;;;;9.60;8.70;;;;;;;30.86;38.84;100931.16;5038034;28;20418;-64
2021/06/18 05:32:12;;;;;;;9.60;8.73;;;;;;;31.50;37.06;100927.41;5046500;28;20203;-65
2021/06/18 05:34:37;;;;;;;9.40;8.60;;;;;;;31.66;36.56;100928.94;5055903;28;20483;-64
2021/06/18 05:37:03;;;;;;;9.13;8.30;;;;;;;31.35;37.09;100936.63;5051055;28;20285;-65
2021/06/18 05:39:28;;;;;;;13.73;9.60;;;;;;;30.42;38.89;100937.94;5058482;28;20173;-63
2021/06/18 05:41:53;;;;;;;9.43;8.57;;;;;;;31.15;37.50;100932.72;5049058;28;20193;-64
2021/06/18 05:44:18;;;;;;;9.10;8.40;;;;;;;31.34;36.81;100934.94;5055881;28;20522;-63
2021/06/18 05:46:44;;;;;;;8.97;8.07;;;;;;;31.63;35.92;100930.03;5038202;28;20201;-63
2021/06/18 05:49:09;;;;;;;9.40;8.50;;;;;;;33.20;33.14;100932.88;5038764;28;20194;-64
2021/06/18 05:51:34;;;;;;;9.43;8.57;;;;;;;32.99;33.27;100932.84;5045490;28;20182;-62
2021/06/18 05:54:00;;;;;;;8.13;7.33;;;;;;;31.82;35.62;100940.25;5072141;28;20184;-64
2021/06/18 05:56:25;;;;;;;9.30;8.30;;;;;;;31.20;36.75;100936.81;5055951;28;20178;-64
2021/06/18 05:58:51;;;;;;;10.70;7.43;;;;;;;31.97;36.20;100945.44;5038247;28;20585;-65
2021/06/18 06:01:16;;;;;;;12.00;9.33;;;;;;;33.00;33.67;100944.50;5038228;28;20177;-64
2021/06/18 06:03:41;;;;;;;9.20;8.30;;;;;;;34.33;31.56;100939.59;5038972;28;20182;-66
2021/06/18 06:06:09;;;;;;;8.90;8.10;;;;;;;32.63;33.54;100950.19;5038437;28;20255;-63
2021/06/18 06:08:35;;;;;;;17.83;7.90;;;;;;;32.64;34.26;100947.34;5037858;28;20598;-64
2021/06/18 06:11:00;;;;;;;8.90;8.13;;;;;;;34.19;31.37;100935.38;5038849;28;20413;-64
2021/06/18 06:13:26;;;;;;;8.67;7.87;;;;;;;33.30;32.99;100940.25;5047044;28;20210;-64
2021/06/18 06:15:51;;;;;;;8.70;7.90;;;;;;;33.69;31.96;100944.16;5037843;28;20233;-63
2021/06/18 06:18:17;;;;;;;9.43;8.40;;;;;;;33.29;31.93;100944.81;5038227;28;20197;-65
2021/06/18 06:20:43;;;;;;;12.50;8.50;;;;;;;33.47;31.51;100942.41;5037761;28;20535;-63
2021/06/18 06:23:09;;;;;;;7.87;7.17;;;;;;;33.95;31.22;100943.78;5037536;28;20186;-65
2021/06/18 06:25:34;;;;;;;8.10;7.50;;;;;;;34.58;29.50;100946.38;5037015;28;20610;-65
2021/06/18 06:28:00;;;;;;;8.60;7.70;;;;;;;34.67;28.29;100941.16;5037674;28;20413;-65
2021/06/18 06:30:25;;;;;;;8.93;8.00;;;;;;;35.13;28.08;100931.59;5042685;28;20182;-65
2021/06/18 06:32:50;;;;;;;7.70;7.20;;;;;;;34.63;28.55;100942.41;5037660;28;20480;-64
2021/06/18 06:35:15;;;;;;;8.00;7.33;;;;;;;33.98;30.08;100939.97;5044805;28;20212;-65
2021/06/18 06:37:42;;;;;;;9.97;7.43;;;;;;;35.19;28.22;100936.41;5057823;28;20274;-64
2021/06/18 06:40:09;;;;;;;8.57;7.63;;;;;;;34.35;28.60;100937.59;5041791;28;20204;-64
2021/06/18 06:42:34;;;;;;;9.47;7.93;;;;;;;34.37;29.14;100942.88;5036761;28;20460;-63
2021/06/18 06:45:00;;;;;;;12.03;7.93;;;;;;;36.62;25.03;100936.66;5037903;28;20444;-73
2021/06/18 06:47:25;;;;;;;8.80;8.00;;;;;;;35.97;25.41;100941.00;5039400;28;20774;-69
2021/06/18 06:49:50;;;;;;;13.97;7.73;;;;;;;34.75;26.94;100949.44;5055798;28;20209;-69
2021/06/18 06:52:18;;;;;;;8.83;7.80;;;;;;;36.11;25.64;100939.66;5056917;28;20181;-69
2021/06/18 06:54:44;;;;;;;10.33;7.83;;;;;;;35.79;26.21;100938.16;5057340;28;20211;-69
2021/06/18 06:57:09;;;;;;;10.80;8.40;;;;;;;36.38;25.84;100938.88;5054583;28;20427;-75
2021/06/18 06:59:34;;;;;;;11.70;7.73;;;;;;;38.12;22.91;100936.03;5061515;28;20565;-73
2021/06/18 07:02:00;;;;;;;13.37;8.30;;;;;;;33.92;28.80;100938.63;5041451;28;20189;-69
2021/06/18 07:04:25;;;;;;;8.93;8.10;;;;;;;36.38;25.01;100936.16;5046753;28;20185;-70
2021/06/18 07:06:51;;;;;;;11.97;8.17;;;;;;;36.93;24.51;100939.91;5054693;28;20169;-69
2021/06/18 07:09:17;;;;;;;8.87;7.97;;;;;;;37.79;23.62;100948.56;5059004;28;20216;-69
2021/06/18 07:11:42;;;;;;;9.43;8.53;;;;;;;34.94;26.57;100958.63;5060964;28;20491;-69
2021/06/18 07:14:08;;;;;;;8.63;7.90;;;;;;;35.76;25.99;100952.00;5046925;28;20198;-68
2021/06/18 07:16:33;;;;;;;9.33;8.40;;;;;;;35.89;25.12;100949.88;5040857;28;20174;-69
2021/06/18 07:18:58;;;;;;;10.50;8.47;;;;;;;33.63;27.99;100960.03;5041039;28;20182;-69
2021/06/18 07:21:24;;;;;;;9.10;8.40;;;;;;;36.13;25.33;100953.09;5051413;28;20181;-69
2021/06/18 07:23:49;;;;;;;9.57;8.30;;;;;;;34.47;27.78;100957.31;5060362;28;20185;-69
2021/06/18 07:26:14;;;;;;;8.90;8.10;;;;;;;37.41;23.52;100962.31;5051115;28;20271;-71
2021/06/18 07:28:40;;;;;;;9.07;8.33;;;;;;;37.83;23.19;100956.22;5057201;28;20181;-70
2021/06/18 07:31:05;;;;;;;8.73;7.90;;;;;;;36.61;24.26;100951.22;5047714;28;20427;-71
2021/06/18 07:33:33;;;;;;;9.17;7.57;;;;;;;36.84;23.55;100951.69;5040632;28;20176;-70
2021/06/18 07:35:59;;;;;;;9.23;8.20;;;;;;;35.84;25.27;100949.44;5052656;28;20266;-71
2021/06/18 07:38:24;;;;;;;7.93;7.03;;;;;;;36.07;25.20;100947.28;5060449;28;20411;-71
2021/06/18 07:40:49;;;;;;;9.43;7.20;;;;;;;36.68;24.56;100957.75;5060289;28;20169;-70
2021/06/18 07:43:14;;;;;;;7.37;6.73;;;;;;;37.35;23.85;100944.78;5042436;28;20578;-72
2021/06/18 07:45:40;;;;;;;7.73;7.03;;;;;;;37.00;23.63;100948.31;5040689;28;20172;-70
2021/06/18 07:48:09;;;;;;;8.40;7.60;;;;;;;37.81;23.48;100943.78;5054252;28;20478;-71
2021/06/18 07:50:36;;;;;;;7.50;6.77;;;;;;;35.87;26.01;100942.88;5041816;28;20166;-70
2021/06/18 07:53:02;;;;;;;8.07;7.03;;;;;;;37.22;24.20;100939.69;5055067;28;20435;-71
2021/06/18 07:55:27;;;;;;;7.87;7.03;;;;;;;36.99;24.34;100941.16;5052374;28;20468;-76
2021/06/18 07:57:53;;;;;;;9.23;7.67;;;;;;;38.62;23.10;100941.72;5048216;28;20188;-72
2021/06/18 08:00:19;;;;;;;10.53;8.37;;;;;;;36.69;24.60;100943.19;5040282;28;20248;-75
2021/06/18 08:02:44;;;;;;;9.53;7.87;;;;;;;38.08;23.90;100949.09;5039537;28;20198;-73
2021/06/18 08:05:11;;;;;;;10.67;7.60;;;;;;;38.16;23.35;100941.97;5044247;28;20166;-73
2021/06/18 08:07:37;;;;;;;12.83;7.57;;;;;;;39.22;22.09;100935.28;5040497;28;20181;-73
2021/06/18 08:10:04;;;;;;;9.77;7.80;;;;;;;38.90;22.15;100928.72;5045619;28;20543;-74
2021/06/18 08:12:29;;;;;;;7.90;7.13;;;;;;;37.15;24.10;100927.72;5045789;28;20442;-74
2021/06/18 08:14:54;;;;;;;7.80;7.00;;;;;;;38.71;22.60;100930.75;5045880;28;20476;-73
2021/06/18 08:17:19;;;;;;;8.23;7.53;;;;;;;39.00;22.43;100931.28;5042158;28;20189;-73
2021/06/18 08:19:45;;;;;;;12.83;8.50;;;;;;;40.73;20.35;100917.41;5043287;28;20562;-73
2021/06/18 08:22:10;;;;;;;15.40;7.10;;;;;;;38.65;22.19;100925.91;5043676;28;20494;-73
2021/06/18 08:24:36;;;;;;;8.17;7.33;;;;;;;37.98;22.93;100933.88;5039380;28;20209;-74
2021/06/18 08:27:02;;;;;;;10.30;7.33;;;;;;;39.21;21.63;100925.38;5040173;28;20188;-73
2021/06/18 08:29:27;;;;;;;8.90;7.57;;;;;;;38.87;22.29;100929.91;5039796;28;20166;-71
2021/06/18 08:31:53;;;;;;;8.07;7.37;;;;;;;39.43;21.41;100915.66;5053516;28;20437;-72
2021/06/18 08:34:18;;;;;;;8.83;7.17;;;;;;;38.72;22.89;100917.94;5060177;28;20189;-71
2021/06/18 08:36:43;;;;;;;7.57;6.80;;;;;;;39.17;22.73;100911.22;5059602;28;20196;-69
2021/06/18 08:39:09;;;;;;;13.67;8.27;;;;;;;39.57;22.11;100916.88;5059404;28;20176;-70
2021/06/18 08:41:34;;;;;;;7.50;6.50;;;;;;;37.86;23.52;100915.13;5059729;28;20157;-70
2021/06/18 08:44:00;;;;;;;11.40;7.27;;;;;;;39.64;21.33;100906.16;5059411;28;20248;-70
2021/06/18 08:46:25;;;;;;;9.17;8.07;;;;;;;39.39;22.39;100901.53;5059633;28;20514;-70
2021/06/18 08:48:50;;;;;;;10.83;7.77;;;;;;;39.14;22.65;100907.97;5059738;28;20165;-70
2021/06/18 08:51:17;;;;;;;8.70;7.70;;;;;;;38.79;23.27;100912.69;5058601;28;20173;-70
2021/06/18 08:53:43;;;;;;;8.47;7.27;;;;;;;38.11;24.47;100907.09;5058511;28;20185;-68
2021/06/18 08:56:09;;;;;;;15.60;7.73;;;;;;;37.45;24.51;100911.22;5059617;28;20707;-69
2021/06/18 08:58:35;;;;;;;13.33;7.83;;;;;;;38.69;23.57;100905.47;5059131;28;20176;-69
2021/06/18 09:01:00;;;;;;;11.10;8.20;;;;;;;39.19;22.88;100905.63;5059169;28;20412;-69
2021/06/18 09:03:41;;;;;;;8.43;7.00;;;;;;;40.04;20.62;100897.03;5059168;28;20261;-69
2021/06/18 09:06:28;;;;;;;8.33;7.40;;;;;;;40.05;21.73;100904.22;5059044;28;20424;-69
2021/06/18 09:09:12;;;;;;;12.10;8.40;;;;;;;40.80;21.10;100904.75;5059124;28;20408;-70
2021/06/18 09:11:41;;;;;;;14.07;8.30;;;;;;;39.66;22.22;100904.09;5059017;28;20417;-70
2021/06/18 09:14:21;;;;;;;16.73;8.17;;;;;;;40.53;21.69;100904.22;5058961;28;20422;-70
2021/06/18 09:17:01;;;;;;;9.93;8.90;;;;;;;41.64;20.35;100897.63;5058891;28;20421;-69
2021/06/18 09:19:27;;;;;;;13.03;8.43;;;;;;;40.56;21.17;100903.84;5044609;28;20444;-69
2021/06/18 09:22:00;;;;;;;15.83;8.30;;;;;;;40.07;22.90;100904.03;5058386;28;20693;-69
2021/06/18 09:24:30;;;;;;;9.67;8.00;;;;;;;39.37;23.80;100905.47;5049843;28;20264;-69
2021/06/18 09:26:55;;;;;;;15.43;8.90;;;;;;;39.69;24.27;100893.69;5038421;28;20490;-69
2021/06/18 09:29:22;;;;;;;13.40;7.63;;;;;;;39.57;23.87;100904.06;5038464;28;20727;-69
2021/06/18 09:31:55;;;;;;;10.20;7.60;;;;;;;39.47;24.05;100903.41;5038646;28;20165;-70
2021/06/18 09:37:35;;;;;;;9.60;7.63;;;;;;;39.12;25.13;100899.97;5051623;28;20530;-69
2021/06/18 09:40:10;;;;;;;10.47;8.17;;;;;;;38.78;25.96;100898.19;5058562;28;20403;-70
2021/06/18 09:42:57;;;;;;;8.43;7.63;;;;;;;39.82;24.91;100884.13;5058053;28;20414;-69
2021/06/18 09:45:33;;;;;;;12.27;8.60;;;;;;;38.92;26.25;100889.38;5057978;28;20415;-69
2021/06/18 09:48:11;;;;;;;9.57;8.27;;;;;;;39.34;25.93;100884.84;5058186;28;20415;-70
2021/06/18 09:50:39;;;;;;;12.60;8.60;;;;;;;38.60;26.19;100890.13;5057493;28;20411;-69
2021/06/18 09:53:22;;;;;;;11.90;9.77;;;;;;;40.50;24.57;100877.25;5057658;28;20518;-70
2021/06/18 09:56:09;;;;;;;10.07;9.07;;;;;;;40.05;25.22;100878.75;5057403;28;20533;-69
2021/06/18 09:58:42;;;;;;;9.63;8.50;;;;;;;38.47;27.37;100884.28;5058112;28;20415;-70
2021/06/18 10:01:25;;;;;;;8.73;8.03;;;;;;;39.90;25.70;100875.91;5058210;28;20414;-69
2021/06/18 10:04:06;;;;;;;9.40;7.97;;;;;;;40.08;25.10;100872.97;5057964;28;20438;-70
2021/06/18 10:06:33;;;;;;;9.77;8.87;;;;;;;38.77;28.00;100874.72;5058135;28;20412;-70
2021/06/18 10:09:00;;;;;;;11.93;9.20;;;;;;;39.16;27.19;100876.84;5057941;28;20550;-70
2021/06/18 10:11:27;;;;;;;10.00;9.10;;;;;;;40.36;25.30;100870.63;5057996;28;20408;-70
2021/06/18 10:13:54;;;;;;;13.53;9.10;;;;;;;39.41;26.85;100882.28;5057691;28;20407;-70
2021/06/18 10:16:21;;;;;;;12.60;9.57;;;;;;;40.08;25.76;100872.97;5057246;28;20817;-70
2021/06/18 10:18:47;;;;;;;10.40;9.37;;;;;;;39.76;26.52;100874.75;5057773;28;20687;-69
2021/06/18 10:21:14;;;;;;;10.60;9.40;;;;;;;39.91;27.25;100863.97;5057805;28;20412;-69
2021/06/18 10:23:41;;;;;;;14.90;13.50;;;;;;;40.62;26.14;100877.69;5057729;28;20416;-69
2021/06/18 10:26:09;;;;;;;11.43;10.10;;;;;;;39.80;26.57;100881.56;5056717;28;20452;-69
2021/06/18 10:28:35;;;;;;;13.53;9.20;;;;;;;39.49;27.19;100870.50;5040907;28;20765;-69
2021/06/18 10:31:02;;;;;;;10.90;9.80;;;;;;;38.43;28.75;100875.63;5042433;28;20428;-69
2021/06/18 10:33:27;;;;;;;11.40;10.40;;;;;;;38.69;28.73;100871.94;5041826;28;20207;-69
2021/06/18 10:36:06;;;;;;;11.07;9.90;;;;;;;39.14;27.34;100875.25;5041511;28;20796;-69
2021/06/18 10:38:35;;;;;;;10.60;9.60;;;;;;;38.99;27.66;100866.91;5042008;28;20173;-70
2021/06/18 10:41:25;;;;;;;13.00;10.50;;;;;;;37.84;27.96;100879.03;5041853;28;20448;-69
2021/06/18 10:43:55;;;;;;;14.87;10.27;;;;;;;39.70;26.02;100865.38;5041648;28;20428;-70
2021/06/18 10:46:36;;;;;;;9.10;8.23;;;;;;;39.08;27.53;100874.91;5041914;28;20420;-71
2021/06/18 10:49:04;;;;;;;10.33;9.43;;;;;;;39.42;27.21;100867.63;5041757;28;20416;-70
2021/06/18 10:51:34;;;;;;;11.23;10.23;;;;;;;37.91;28.78;100873.81;5041454;28;20408;-69
2021/06/18 10:54:08;;;;;;;12.10;10.87;;;;;;;40.04;26.27;100866.13;5041512;28;20493;-69
2021/06/18 10:56:46;;;;;;;12.20;11.10;;;;;;;39.80;25.29;100867.91;5041425;28;20861;-69
2021/06/18 10:59:28;;;;;;;11.60;9.50;;;;;;;38.52;26.61;100877.31;5041554;28;20469;-69
2021/06/18 11:01:53;;;;;;;10.33;9.27;;;;;;;39.73;24.29;100859.56;5041286;28;20412;-70
2021/06/18 11:04:43;;;;;;;10.93;9.87;;;;;;;39.28;25.36;100863.69;5041305;28;20645;-70
2021/06/18 11:07:28;;;;;;;11.50;9.67;;;;;;;39.09;26.28;100856.66;5041222;28;20173;-69
2021/06/18 11:09:57;;;;;;;13.57;12.27;;;;;;;39.54;25.49;100847.13;5041186;28;20407;-68
2021/06/18 11:12:23;;;;;;;11.13;9.23;;;;;;;40.50;24.41;100849.94;5041307;28;20416;-69
2021/06/18 11:14:54;;;;;;;14.00;11.27;;;;;;;39.96;24.00;100852.50;5041237;28;20486;-70
2021/06/18 11:17:39;;;;;;;11.13;9.57;;;;;;;38.39;26.68;100860.63;5041139;28;20174;-68
2021/06/18 11:20:07;;;;;;;14.30;12.87;;;;;;;38.84;26.33;100853.94;5041014;28;20870;-69
2021/06/18 11:22:39;;;;;;;12.30;9.73;;;;;;;39.20;25.92;100847.31;5040811;28;20435;-69
2021/06/18 11:25:05;;;;;;;13.33;12.30;;;;;;;38.90;26.29;100845.09;5040654;28;20533;-70
2021/06/18 11:27:31;;;;;;;12.37;10.90;;;;;;;38.32;27.00;100848.66;5040909;28;20429;-69